Time;durP1;ratioP1;P1;durP2;ratioP2;P2;SDS_P1;SDS_P2;PMS_P1;PMS_P2;Temp;Humidity;BMP_temperature;BMP_pressure;BME280_temperature;BME280_humidity;BME280_pressure;Samples;Min_cycle;Max_cycle;Signal;HPM_P1;HPM_P2
2021/05/06 00:33:25;;;;;;;11.13;1.63;;;4.00;99.90;;;;;;5031004;28;20049;-56
2021/05/06 00:35:51;;;;;;;10.00;1.83;;;4.10;99.90;;;;;;5031094;28;20042;-56
2021/05/06 00:38:21;;;;;;;12.68;2.58;;;4.10;99.90;;;;;;5030959;28;20416;-56
2021/05/06 00:46:43;;;;;;;10.00;1.85;;;3.80;99.90;;;;;;5030735;28;20046;-56
2021/05/06 00:54:53;;;;;;;7.20;1.73;;;3.80;99.90;;;;;;5030706;28;20504;-56
2021/05/06 00:57:35;;;;;;;7.65;1.73;;;3.90;99.90;;;;;;5030679;28;20094;-56
2021/05/06 01:00:47;;;;;;;8.98;2.05;;;3.90;99.90;;;;;;5030430;28;20495;-56
2021/05/06 01:03:06;;;;;;;9.52;1.80;;;3.90;99.90;;;;;;5026648;28;20053;-56
2021/05/06 01:05:38;;;;;;;11.07;1.83;;;3.80;99.90;;;;;;5030381;28;20059;-56
2021/05/06 01:13:05;;;;;;;8.02;1.88;;;3.90;99.90;;;;;;5112743;28;20092;-56
2021/05/06 01:15:31;;;;;;;12.80;2.10;;;4.00;99.90;;;;;;5112973;28;20096;-56
2021/05/06 01:17:57;;;;;;;8.52;2.72;;;3.90;99.90;;;;;;5078063;28;20052;-56
2021/05/06 01:20:23;;;;;;;9.35;2.58;;;4.00;99.90;;;;;;5112749;28;20044;-56
2021/05/06 01:22:49;;;;;;;10.10;2.53;;;4.00;99.90;;;;;;5112659;28;20069;-56
2021/05/06 01:25:15;;;;;;;8.27;1.98;;;4.00;99.90;;;;;;5112928;28;20055;-56
2021/05/06 01:28:02;;;;;;;11.65;2.85;;;4.10;99.90;;;;;;5112457;28;20035;-56
2021/05/06 01:30:38;;;;;;;7.38;2.28;;;4.20;99.90;;;;;;5112701;28;20093;-56
2021/05/06 01:33:16;;;;;;;11.57;2.20;;;4.20;99.90;;;;;;5112516;28;20370;-56
2021/05/06 01:36:04;;;;;;;10.20;2.20;;;4.30;99.90;;;;;;5112681;28;20051;-57
2021/05/06 01:38:51;;;;;;;10.10;2.22;;;4.40;99.90;;;;;;5112538;28;20036;-56
2021/05/06 01:44:05;;;;;;;10.82;2.03;;;4.50;99.90;;;;;;5112129;28;20051;-56
2021/05/06 01:57:32;;;;;;;6.90;1.92;;;4.40;99.90;;;;;;5112263;28;20071;-56
2021/05/06 02:00:12;;;;;;;9.15;1.60;;;4.40;99.90;;;;;;5112239;28;20382;-56
2021/05/06 02:02:38;;;;;;;6.90;1.40;;;4.30;99.90;;;;;;5094259;28;20088;-56
2021/05/06 02:05:05;;;;;;;7.63;1.35;;;4.30;99.90;;;;;;5112584;28;20039;-56
2021/05/06 02:07:32;;;;;;;4.00;1.40;;;4.40;99.90;;;;;;5112128;28;20056;-56
2021/05/06 02:09:57;;;;;;;5.40;1.20;;;4.30;99.90;;;;;;5112139;28;20040;-54
2021/05/06 02:12:23;;;;;;;11.15;1.50;;;4.40;99.90;;;;;;5111970;28;20396;-55
2021/05/06 02:14:56;;;;;;;4.30;1.02;;;4.30;99.90;;;;;;5112295;28;20048;-56
2021/05/06 02:17:22;;;;;;;7.85;1.45;;;4.30;99.90;;;;;;5111874;28;20477;-56
2021/05/06 02:19:49;;;;;;;6.75;1.30;;;4.30;99.90;;;;;;5112124;28;20074;-56
2021/05/06 02:22:19;;;;;;;5.40;1.17;;;4.20;99.90;;;;;;5112010;28;20048;-56
2021/05/06 02:24:46;;;;;;;8.40;1.40;;;4.20;99.90;;;;;;5112024;28;20043;-56
2021/05/06 02:27:12;;;;;;;8.48;2.00;;;4.10;99.90;;;;;;5112141;28;20048;-56
2021/05/06 02:29:38;;;;;;;6.60;2.05;;;4.00;99.90;;;;;;5111948;28;20488;-56
2021/05/06 02:32:05;;;;;;;9.10;1.60;;;3.90;99.90;;;;;;5111834;28;20068;-56
2021/05/06 02:34:31;;;;;;;7.90;1.77;;;4.00;99.90;;;;;;5112002;28;20098;-56
2021/05/06 02:36:56;;;;;;;3.08;1.42;;;3.90;99.90;;;;;;5111913;28;20400;-56
2021/05/06 02:39:22;;;;;;;13.32;2.15;;;3.90;99.90;;;;;;5114410;28;20036;-56
2021/05/06 02:41:48;;;;;;;6.70;1.92;;;3.90;99.90;;;;;;5115781;28;20042;-56
2021/05/06 02:44:14;;;;;;;5.72;2.03;;;3.90;99.90;;;;;;5115795;28;20059;-56
2021/05/06 02:46:40;;;;;;;5.65;1.63;;;4.00;99.90;;;;;;5097182;28;20044;-56
2021/05/06 02:49:06;;;;;;;5.88;1.70;;;4.00;99.90;;;;;;5115864;28;20067;-56
2021/05/06 02:51:36;;;;;;;9.73;2.15;;;4.00;99.90;;;;;;5115700;28;20043;-56
2021/05/06 02:54:03;;;;;;;6.72;1.77;;;4.10;99.90;;;;;;5115657;28;20074;-56
2021/05/06 02:56:46;;;;;;;9.90;1.60;;;3.90;99.90;;;;;;5115695;28;20097;-56
2021/05/06 03:04:43;;;;;;;6.03;1.65;;;4.00;99.90;;;;;;5115909;28;20032;-56
2021/05/06 03:07:11;;;;;;;5.93;1.63;;;4.00;99.90;;;;;;5115936;28;20496;-56
2021/05/06 03:22:52;;;;;;;5.88;2.05;;;3.50;99.90;;;;;;5115144;28;20050;-56
2021/05/06 03:25:20;;;;;;;4.13;1.13;;;3.60;99.90;;;;;;5114971;28;20050;-56
2021/05/06 03:28:03;;;;;;;8.48;1.65;;;3.60;99.90;;;;;;5115094;28;20400;-56
2021/05/06 03:44:21;;;;;;;6.68;1.55;;;3.70;99.90;;;;;;5114563;28;20405;-56
2021/05/06 04:03:24;;;;;;;7.75;2.30;;;3.70;99.90;;;;;;5114433;28;20077;-56
2021/05/06 04:27:28;;;;;;;9.57;4.05;;;4.10;99.90;;;;;;5113694;28;20048;-56
2021/05/06 04:37:58;;;;;;;10.98;4.30;;;4.10;99.90;;;;;;5113705;28;20122;-56
2021/05/06 04:54:22;;;;;;;10.60;5.80;;;4.30;99.90;;;;;;5113262;28;20043;-56
2021/05/06 05:05:34;;;;;;;9.38;5.15;;;4.60;99.90;;;;;;4991135;28;20412;-56
2021/05/06 05:08:07;;;;;;;8.15;4.88;;;4.60;99.90;;;;;;4990964;28;20547;-56
2021/05/06 05:14:01;;;;;;;8.65;4.95;;;4.70;99.90;;;;;;4933001;28;20060;-56
2021/05/06 05:26:47;;;;;;;9.57;4.75;;;5.00;99.90;;;;;;4932908;29;20047;-56
2021/05/06 05:29:12;;;;;;;8.40;5.07;;;5.10;99.90;;;;;;4932871;29;20054;-56
2021/05/06 05:31:38;;;;;;;11.60;4.82;;;5.20;99.90;;;;;;4932727;29;20438;-56
2021/05/06 05:34:17;;;;;;;7.70;4.68;;;5.20;99.90;;;;;;4956316;28;20079;-56
2021/05/06 05:36:43;;;;;;;7.97;4.18;;;5.40;99.90;;;;;;4980179;28;20123;-56
2021/05/06 05:39:20;;;;;;;6.97;4.22;;;5.40;99.90;;;;;;4990639;28;20058;-56
2021/05/06 05:55:11;;;;;;;7.72;3.38;;;6.10;99.90;;;;;;5112319;28;20044;-57
2021/05/06 05:57:37;;;;;;;9.20;3.83;;;6.30;99.90;;;;;;5112690;28;20053;-57
2021/05/06 06:00:04;;;;;;;8.25;3.90;;;6.50;99.90;;;;;;5112386;28;20036;-57
2021/05/06 06:02:30;;;;;;;7.57;3.42;;;6.80;99.90;;;;;;5112543;28;20096;-56
2021/05/06 06:04:56;;;;;;;9.93;2.88;;;7.00;99.90;;;;;;5112406;28;20500;-56
2021/05/06 06:07:22;;;;;;;7.72;2.85;;;7.40;99.90;;;;;;5112200;28;20043;-56
2021/05/06 06:09:48;;;;;;;16.00;4.80;;;7.50;99.90;;;;;;5112056;28;20043;-56
2021/05/06 06:12:13;;;;;;;9.05;3.10;;;7.60;99.90;;;;;;5112134;28;20134;-56
2021/05/06 06:17:10;;;;;;;4.35;2.40;;;7.60;99.90;;;;;;5116435;28;20122;-56
2021/05/06 06:19:37;;;;;;;10.10;2.65;;;7.80;99.90;;;;;;5116127;28;20465;-57
2021/05/06 06:22:08;;;;;;;7.38;2.78;;;7.90;99.90;;;;;;5116277;28;20473;-56
2021/05/06 06:24:33;;;;;;;4.75;2.00;;;8.20;99.90;;;;;;5115650;28;20039;-57
2021/05/06 06:26:59;;;;;;;11.00;3.78;;;8.30;99.90;;;;;;5116559;28;20109;-56
2021/05/06 06:29:33;;;;;;;6.03;2.33;;;8.40;99.90;;;;;;5116412;28;20405;-56
2021/05/06 06:32:01;;;;;;;6.15;2.33;;;8.60;99.90;;;;;;5116146;28;20046;-56
2021/05/06 06:34:26;;;;;;;7.35;2.45;;;8.70;99.90;;;;;;5115953;28;20120;-56
2021/05/06 06:36:52;;;;;;;5.07;1.83;;;9.00;99.90;;;;;;5115904;28;20043;-56
2021/05/06 06:39:18;;;;;;;5.70;2.28;;;9.10;99.90;;;;;;5116336;28;20042;-56
2021/05/06 06:41:45;;;;;;;6.72;2.35;;;9.50;99.90;;;;;;5115976;28;20046;-57
2021/05/06 06:44:13;;;;;;;3.97;1.95;;;9.40;99.90;;;;;;5115720;28;20083;-56
2021/05/06 06:46:38;;;;;;;6.95;2.00;;;9.50;99.90;;;;;;5115688;28;20046;-56
2021/05/06 06:49:04;;;;;;;4.55;1.80;;;9.80;99.90;;;;;;5115842;28;20032;-57
2021/05/06 06:51:30;;;;;;;7.00;1.85;;;9.90;99.90;;;;;;5115855;28;20108;-56
2021/05/06 06:53:56;;;;;;;5.82;1.55;;;9.90;99.90;;;;;;5116254;28;20050;-57
2021/05/06 06:56:22;;;;;;;6.05;1.77;;;10.20;99.90;;;;;;5115816;28;20126;-56
2021/05/06 06:58:52;;;;;;;6.55;1.77;;;10.30;99.90;;;;;;5115846;28;20051;-57
2021/05/06 07:01:18;;;;;;;9.18;1.80;;;10.20;99.90;;;;;;5115905;28;20047;-57
2021/05/06 07:03:44;;;;;;;4.57;1.55;;;10.30;99.90;;;;;;5115720;28;20162;-57
2021/05/06 07:06:11;;;;;;;4.22;1.75;;;10.50;99.90;;;;;;5115539;28;20127;-57
2021/05/06 07:08:39;;;;;;;6.13;1.70;;;11.00;99.90;;;;;;5115443;28;20032;-57
2021/05/06 07:11:06;;;;;;;14.50;2.65;;;11.30;99.90;;;;;;5115741;28;20054;-57
2021/05/06 07:13:33;;;;;;;9.38;3.40;;;11.40;99.90;;;;;;5115644;28;20047;-57
2021/05/06 07:16:01;;;;;;;14.52;3.85;;;11.30;99.80;;;;;;5115513;28;20056;-57
2021/05/06 07:18:28;;;;;;;10.60;4.35;;;11.30;99.70;;;;;;5115483;28;20047;-57
2021/05/06 07:20:55;;;;;;;12.98;3.58;;;11.40;99.80;;;;;;5115410;28;20047;-56
2021/05/06 07:23:22;;;;;;;6.95;2.15;;;11.20;99.70;;;;;;5115466;28;20391;-57
2021/05/06 07:25:51;;;;;;;4.90;1.58;;;11.60;98.60;;;;;;5115065;28;20504;-57
2021/05/06 07:28:19;;;;;;;7.25;1.77;;;11.80;98.10;;;;;;5115015;28;20051;-57
2021/05/06 07:30:49;;;;;;;5.43;1.48;;;11.80;96.90;;;;;;5115279;28;20040;-57
2021/05/06 07:33:16;;;;;;;6.32;1.40;;;11.80;97.00;;;;;;5096673;28;20046;-56
2021/05/06 07:35:42;;;;;;;6.05;1.45;;;12.00;98.20;;;;;;5114872;28;20047;-57
2021/05/06 07:38:09;;;;;;;4.28;1.05;;;12.10;97.50;;;;;;5114689;28;20370;-56
2021/05/06 07:40:37;;;;;;;5.63;1.60;;;11.90;97.10;;;;;;5115156;28;20036;-57
2021/05/06 07:43:04;;;;;;;5.78;1.45;;;11.80;98.40;;;;;;5115050;28;20078;-57
2021/05/06 07:45:31;;;;;;;13.18;1.75;;;12.20;99.20;;;;;;5096865;28;20052;-57
2021/05/06 07:47:58;;;;;;;4.00;1.40;;;12.30;97.10;;;;;;5094431;28;20072;-56
2021/05/06 07:50:24;;;;;;;7.43;1.60;;;12.40;97.10;;;;;;5094407;28;20122;-57
2021/05/06 07:52:53;;;;;;;5.38;1.38;;;12.20;96.90;;;;;;5094373;28;20090;-56
2021/05/06 07:55:20;;;;;;;10.85;1.63;;;11.80;96.70;;;;;;5094238;28;20375;-57
2021/05/06 07:57:46;;;;;;;4.50;1.00;;;11.90;97.20;;;;;;5094263;28;20489;-57
2021/05/06 08:00:17;;;;;;;5.53;1.17;;;12.10;96.90;;;;;;5094021;28;20040;-56
2021/05/06 08:02:43;;;;;;;7.85;1.98;;;12.60;96.00;;;;;;5094294;28;20066;-56
2021/05/06 08:05:10;;;;;;;5.65;1.23;;;12.80;96.10;;;;;;5093804;28;20469;-56
2021/05/06 08:07:35;;;;;;;5.60;1.50;;;12.90;95.70;;;;;;5094186;28;20042;-57
2021/05/06 08:10:02;;;;;;;3.70;1.30;;;13.10;95.30;;;;;;5093952;28;20044;-57
2021/05/06 08:12:27;;;;;;;5.60;1.42;;;13.00;94.90;;;;;;5093751;28;20040;-57
2021/05/06 08:14:54;;;;;;;5.90;1.50;;;12.50;95.10;;;;;;5093777;28;20499;-57
2021/05/06 08:17:21;;;;;;;7.53;1.20;;;12.20;95.10;;;;;;5093459;28;20496;-56
2021/05/06 08:19:47;;;;;;;5.70;1.50;;;12.10;95.30;;;;;;5093711;28;20093;-56
2021/05/06 08:22:16;;;;;;;5.80;1.40;;;11.70;96.70;;;;;;5093337;28;20070;-56
2021/05/06 08:24:42;;;;;;;4.88;1.15;;;11.50;95.80;;;;;;5093502;28;20409;-57
2021/05/06 08:27:08;;;;;;;5.55;1.10;;;11.20;96.50;;;;;;5075359;28;20036;-56
2021/05/06 08:29:34;;;;;;;4.22;1.40;;;11.10;97.30;;;;;;5093348;28;20094;-56
2021/05/06 08:32:00;;;;;;;7.00;1.60;;;10.90;97.10;;;;;;5093249;28;20478;-57
2021/05/06 08:34:26;;;;;;;3.78;1.23;;;10.40;99.30;;;;;;5093296;28;20036;-56
2021/05/06 08:36:52;;;;;;;7.30;1.55;;;10.30;99.90;;;;;;5092522;28;20524;-56
2021/05/06 08:39:18;;;;;;;4.70;1.95;;;10.10;99.90;;;;;;5093416;28;20048;-56
2021/05/06 08:41:44;;;;;;;3.80;1.20;;;10.20;99.90;;;;;;5093249;28;20055;-56
2021/05/06 08:44:13;;;;;;;2.50;1.05;;;10.70;99.90;;;;;;5092826;28;20456;-57
2021/05/06 08:47:01;;;;;;;;;;;11.20;99.70;;;;;;5114334;28;20063;-57
2021/05/06 08:49:26;;;;;;;3.40;1.15;;;11.50;98.90;;;;;;5113782;28;20459;-57
2021/05/06 08:51:52;;;;;;;1.48;1.13;;;11.80;99.20;;;;;;5113242;28;20123;-56
2021/05/06 08:54:18;;;;;;;7.50;1.10;;;12.20;98.70;;;;;;5113316;28;20040;-56
2021/05/06 08:56:43;;;;;;;8.50;1.25;;;12.60;97.80;;;;;;5113144;28;20450;-56
2021/05/06 08:59:09;;;;;;;5.60;0.95;;;12.80;97.60;;;;;;5113071;27;20042;-56
2021/05/06 09:01:35;;;;;;;4.65;1.40;;;13.20;96.20;;;;;;5094510;28;20105;-57
2021/05/06 09:04:00;;;;;;;7.03;1.27;;;13.70;96.40;;;;;;5111889;28;20387;-56
2021/05/06 09:06:26;;;;;;;3.42;1.30;;;13.90;95.70;;;;;;5113091;28;20055;-55
2021/05/06 09:08:56;;;;;;;8.63;1.42;;;14.20;95.20;;;;;;5112486;28;20378;-57
2021/05/06 09:11:37;;;;;;;4.13;1.30;;;14.10;94.60;;;;;;5113225;28;20049;-56
2021/05/06 09:14:07;;;;;;;8.27;1.70;;;13.80;94.30;;;;;;5112763;28;20075;-56
2021/05/06 09:16:43;;;;;;;3.67;1.17;;;13.50;93.20;;;;;;5094922;28;20039;-56
2021/05/06 09:19:10;;;;;;;4.57;1.20;;;13.10;93.80;;;;;;5112937;28;20043;-56
2021/05/06 09:21:38;;;;;;;5.88;1.33;;;12.70;94.80;;;;;;5112833;28;20032;-56
2021/05/06 09:24:19;;;;;;;6.05;2.10;;;11.90;96.30;;;;;;5112749;28;20070;-56
2021/05/06 09:26:44;;;;;;;6.50;1.30;;;11.20;98.20;;;;;;5112655;28;20032;-56
2021/05/06 09:29:12;;;;;;;6.05;1.70;;;10.80;99.90;;;;;;5112459;28;20539;-56
2021/05/06 09:31:40;;;;;;;2.97;2.03;;;10.10;99.90;;;;;;5112830;28;20073;-57
2021/05/06 09:34:08;;;;;;;2.37;1.33;;;9.10;99.90;;;;;;5112692;28;20473;-56
2021/05/06 09:36:34;;;;;;;3.10;1.38;;;8.50;99.90;;;;;;5112715;28;20346;-56
2021/05/06 09:39:00;;;;;;;1.85;0.80;;;8.20;99.90;;;;;;5112157;28;20477;-56
2021/05/06 09:41:34;;;;;;;3.85;1.10;;;7.70;99.90;;;;;;5112412;28;20038;-56
2021/05/06 09:44:14;;;;;;;1.75;0.70;;;7.50;99.90;;;;;;5112572;28;20043;-56
2021/05/06 09:46:43;;;;;;;2.63;1.30;;;7.20;99.90;;;;;;5112127;28;20047;-56
2021/05/06 09:49:08;;;;;;;5.15;1.25;;;7.10;99.90;;;;;;5112269;28;20043;-56
2021/05/06 09:51:35;;;;;;;2.03;1.17;;;6.90;99.90;;;;;;5112518;28;20050;-56
2021/05/06 09:54:02;;;;;;;9.10;2.17;;;6.90;99.90;;;;;;5112268;28;20400;-56
2021/05/06 09:56:28;;;;;;;3.67;1.10;;;6.90;99.90;;;;;;5112528;28;20043;-56
2021/05/06 09:58:55;;;;;;;3.17;1.20;;;6.90;99.90;;;;;;5112276;28;20050;-57
2021/05/06 10:01:23;;;;;;;2.50;1.30;;;7.00;99.90;;;;;;5112312;28;20084;-56
2021/05/06 10:03:49;;;;;;;4.00;1.55;;;6.80;99.90;;;;;;5112478;28;20040;-56
2021/05/06 10:06:18;;;;;;;1.85;1.20;;;6.90;99.90;;;;;;5112364;28;20067;-56
2021/05/06 10:08:45;;;;;;;6.20;1.50;;;6.90;99.90;;;;;;5112148;28;20043;-55
2021/05/06 10:11:13;;;;;;;3.30;1.35;;;7.10;99.90;;;;;;5112233;28;20039;-56
2021/05/06 10:13:40;;;;;;;1.55;1.33;;;7.40;99.90;;;;;;5111973;28;20504;-56
2021/05/06 10:16:08;;;;;;;1.20;0.80;;;7.90;99.90;;;;;;5094003;28;20048;-57
2021/05/06 10:18:37;;;;;;;1.35;0.85;;;8.40;99.90;;;;;;5112282;28;20492;-56
2021/05/06 10:21:04;;;;;;;1.02;0.70;;;8.80;99.90;;;;;;5112032;28;20043;-57
2021/05/06 10:23:30;;;;;;;0.98;0.88;;;9.10;99.90;;;;;;5111999;28;20051;-56
2021/05/06 10:25:56;;;;;;;1.98;1.00;;;9.70;99.90;;;;;;5111937;28;20040;-57
2021/05/06 10:28:23;;;;;;;2.17;1.27;;;10.20;99.90;;;;;;5112058;28;20061;-57
2021/05/06 10:30:49;;;;;;;3.42;1.30;;;10.30;99.90;;;;;;5112213;28;20044;-56
2021/05/06 10:33:21;;;;;;;1.65;1.13;;;10.30;99.90;;;;;;5111840;28;20048;-57
2021/05/06 10:35:47;;;;;;;2.55;1.23;;;10.50;99.90;;;;;;5112035;28;20044;-56
2021/05/06 10:38:13;;;;;;;1.80;1.17;;;10.90;99.90;;;;;;5111962;28;20050;-56
2021/05/06 10:40:41;;;;;;;2.15;1.13;;;10.90;99.90;;;;;;5111778;28;20043;-56
2021/05/06 10:43:28;;;;;;;1.38;0.93;;;11.30;99.90;;;;;;5111749;28;20461;-57
2021/05/06 10:46:02;;;;;;;2.50;0.90;;;11.50;99.90;;;;;;5109435;28;20048;-56
2021/05/06 10:48:53;;;;;;;1.55;0.60;;;11.50;99.90;;;;;;5111838;28;20550;-56
2021/05/06 10:51:26;;;;;;;;;;;11.90;99.90;;;;;;5112279;28;20114;-57
2021/05/06 10:53:51;;;;;;;1.05;0.70;;;12.30;99.90;;;;;;5111908;28;20392;-57
2021/05/06 10:56:17;;;;;;;1.98;0.80;;;12.40;98.10;;;;;;5111656;28;20111;-56
2021/05/06 10:58:43;;;;;;;2.00;0.88;;;12.80;98.80;;;;;;5111719;28;20039;-56
2021/05/06 11:01:14;;;;;;;2.63;1.08;;;12.90;98.80;;;;;;5115499;28;20042;-57
2021/05/06 11:03:41;;;;;;;3.28;1.10;;;12.90;97.70;;;;;;5115499;28;20043;-57
2021/05/06 11:06:26;;;;;;;1.83;1.08;;;13.20;96.80;;;;;;5115190;28;20039;-57
2021/05/06 11:08:52;;;;;;;2.35;0.90;;;13.50;98.60;;;;;;5115343;28;20042;-57
2021/05/06 11:11:18;;;;;;;2.60;0.90;;;13.20;96.80;;;;;;5096997;28;20039;-57
2021/05/06 11:14:07;;;;;;;3.55;1.17;;;13.30;96.80;;;;;;5115070;28;20077;-56
2021/05/06 11:16:36;;;;;;;3.67;1.23;;;13.50;97.90;;;;;;5115261;28;20063;-57
2021/05/06 11:19:03;;;;;;;2.83;0.98;;;13.70;93.80;;;;;;5113858;28;20032;-57
2021/05/06 11:21:29;;;;;;;4.38;1.67;;;13.90;95.90;;;;;;5096708;28;20447;-56
2021/05/06 11:24:18;;;;;;;3.17;1.50;;;14.10;94.40;;;;;;5114919;28;20039;-56
2021/05/06 11:27:08;;;;;;;3.55;1.75;;;14.30;93.80;;;;;;5114972;28;20051;-56
2021/05/06 11:29:36;;;;;;;3.13;1.55;;;14.30;93.50;;;;;;5114996;28;20047;-57
2021/05/06 11:32:02;;;;;;;1.73;1.13;;;14.50;93.30;;;;;;5114948;28;20496;-56
2021/05/06 11:34:49;;;;;;;2.88;1.48;;;14.90;93.60;;;;;;5114852;28;20376;-57
2021/05/06 11:37:29;;;;;;;4.03;1.52;;;15.10;94.90;;;;;;5114902;28;20039;-57
2021/05/06 11:40:09;;;;;;;2.95;1.50;;;14.70;92.80;;;;;;5096978;28;20043;-57
2021/05/06 11:42:39;;;;;;;;;;;14.80;92.40;;;;;;5110779;28;20039;-56
2021/05/06 11:45:27;;;;;;;2.80;1.50;;;14.10;92.80;;;;;;5112810;28;19923;-56
2021/05/06 11:47:55;;;;;;;4.28;1.95;;;14.10;93.40;;;;;;5114320;28;20381;-56
2021/05/06 11:50:33;;;;;;;2.95;1.85;;;13.80;95.10;;;;;;5114580;28;20047;-57
2021/05/06 11:53:01;;;;;;;5.40;1.65;;;13.40;93.20;;;;;;5114472;28;20039;-56
2021/05/06 11:55:35;;;;;;;6.13;1.42;;;13.40;93.10;;;;;;5114478;28;20401;-56
2021/05/06 11:58:02;;;;;;;4.35;1.65;;;13.20;93.80;;;;;;5114497;28;20111;-56
2021/05/06 12:00:29;;;;;;;7.78;2.30;;;12.90;94.00;;;;;;5114531;28;20046;-56
2021/05/06 12:03:04;;;;;;;9.82;1.85;;;12.90;95.50;;;;;;5096287;28;20043;-56
2021/05/06 12:05:48;;;;;;;4.60;1.67;;;12.80;94.00;;;;;;5114189;28;20048;-56
2021/05/06 12:08:14;;;;;;;4.50;2.03;;;12.60;95.80;;;;;;5096083;28;20052;-56
2021/05/06 12:10:40;;;;;;;3.05;2.55;;;12.40;96.00;;;;;;5114558;28;20126;-56
2021/05/06 12:13:06;;;;;;;2.38;1.95;;;12.20;98.70;;;;;;5114190;28;20039;-56
2021/05/06 12:15:32;;;;;;;3.65;2.10;;;12.20;98.10;;;;;;5114154;28;20050;-56
2021/05/06 12:18:18;;;;;;;3.30;2.08;;;11.90;98.00;;;;;;5114096;28;20488;-56
2021/05/06 12:20:51;;;;;;;3.35;2.00;;;11.80;98.80;;;;;;5113948;28;20048;-56
2021/05/06 12:23:18;;;;;;;6.88;1.95;;;11.60;99.90;;;;;;5114167;28;20059;-56
2021/05/06 12:25:44;;;;;;;3.33;2.15;;;11.40;99.90;;;;;;5113755;28;20116;-57
2021/05/06 12:28:09;;;;;;;7.50;2.25;;;11.10;99.90;;;;;;5097832;28;20473;-56
2021/05/06 12:30:35;;;;;;;5.40;2.08;;;10.70;99.90;;;;;;5101344;28;20032;-56
2021/05/06 12:33:01;;;;;;;7.13;3.08;;;10.10;99.90;;;;;;5108972;28;20035;-56
2021/05/06 12:35:27;;;;;;;8.32;2.60;;;9.50;99.90;;;;;;5090215;28;20047;-56
2021/05/06 12:37:54;;;;;;;5.47;3.13;;;9.20;99.90;;;;;;5113120;28;20425;-56
2021/05/06 12:40:20;;;;;;;5.10;3.08;;;8.80;99.90;;;;;;5112711;28;20040;-56
2021/05/06 12:42:46;;;;;;;6.45;2.85;;;8.70;99.90;;;;;;5113317;28;20102;-56
2021/05/06 12:45:15;;;;;;;8.77;2.95;;;8.70;99.90;;;;;;5094000;28;20540;-55
2021/05/06 12:47:44;;;;;;;5.10;3.05;;;8.70;99.90;;;;;;5112741;28;20481;-56
2021/05/06 12:50:19;;;;;;;6.32;3.00;;;8.80;99.90;;;;;;5112719;28;20450;-55
2021/05/06 12:52:46;;;;;;;4.75;2.42;;;8.80;99.90;;;;;;5113102;28;20044;-56
2021/05/06 12:55:21;;;;;;;5.13;2.88;;;8.80;99.90;;;;;;5111043;28;20039;-56
2021/05/06 12:58:05;;;;;;;3.92;2.70;;;8.70;99.90;;;;;;5103073;28;20044;-56
2021/05/06 13:00:34;;;;;;;5.22;3.28;;;8.70;99.90;;;;;;5106613;28;20046;-56
2021/05/06 13:03:05;;;;;;;4.53;2.97;;;8.70;99.90;;;;;;5106337;28;20084;-56
2021/05/06 13:05:39;;;;;;;5.03;2.70;;;8.90;99.90;;;;;;5107075;28;20089;-56
2021/05/06 13:08:06;;;;;;;5.20;3.08;;;9.10;99.90;;;;;;5112430;28;20036;-56
2021/05/06 13:10:33;;;;;;;3.67;2.33;;;9.20;99.90;;;;;;5112140;28;20039;-56
2021/05/06 13:12:59;;;;;;;2.53;2.08;;;9.30;99.90;;;;;;5112775;28;20049;-56
2021/05/06 13:15:26;;;;;;;3.85;1.80;;;9.40;99.90;;;;;;5095796;28;20035;-56
2021/05/06 13:17:52;;;;;;;2.28;1.90;;;9.40;99.90;;;;;;5112564;28;20042;-56
2021/05/06 13:20:20;;;;;;;2.95;1.83;;;9.50;99.90;;;;;;5111717;28;20092;-56
2021/05/06 13:23:06;;;;;;;2.33;1.60;;;9.50;99.90;;;;;;5111740;28;20036;-56
2021/05/06 13:25:43;;;;;;;2.83;2.00;;;9.60;99.90;;;;;;5096399;28;20481;-56
2021/05/06 13:28:11;;;;;;;4.18;2.40;;;9.50;99.90;;;;;;5112021;28;20044;-57
2021/05/06 13:30:37;;;;;;;3.50;2.10;;;9.50;99.90;;;;;;5111367;28;20051;-56
2021/05/06 13:33:17;;;;;;;2.83;2.10;;;9.50;99.90;;;;;;5101546;28;20240;-56
2021/05/06 13:35:59;;;;;;;;;;;9.50;99.90;;;;;;5112221;28;20040;-56
2021/05/06 13:38:25;;;;;;;4.40;2.22;;;9.50;99.90;;;;;;5102550;28;19916;-56
2021/05/06 13:40:50;;;;;;;2.15;1.85;;;9.50;99.90;;;;;;5107393;28;20516;-55
2021/05/06 13:43:16;;;;;;;4.00;2.22;;;9.60;99.90;;;;;;5111865;28;20450;-55
2021/05/06 13:45:42;;;;;;;2.42;1.75;;;9.60;99.90;;;;;;5111949;28;20047;-56
2021/05/06 13:48:07;;;;;;;2.42;2.03;;;9.60;99.90;;;;;;5111979;28;20047;-56
2021/05/06 13:50:33;;;;;;;2.90;2.00;;;9.60;99.90;;;;;;5112049;28;20480;-56
2021/05/06 13:53:00;;;;;;;2.47;2.15;;;9.70;99.90;;;;;;5111641;28;20036;-56
2021/05/06 13:55:26;;;;;;;4.25;1.60;;;9.70;99.90;;;;;;5094917;28;20481;-56
2021/05/06 13:57:51;;;;;;;3.47;1.65;;;9.60;99.90;;;;;;5111827;28;20061;-56
2021/05/06 14:00:17;;;;;;;2.67;1.45;;;9.50;99.90;;;;;;5111684;28;20477;-56
2021/05/06 14:02:43;;;;;;;1.63;1.50;;;9.50;99.90;;;;;;5093663;28;20078;-56
2021/05/06 14:05:09;;;;;;;1.50;1.40;;;9.50;99.90;;;;;;5112024;28;20075;-56
2021/05/06 14:07:35;;;;;;;2.03;1.60;;;9.60;99.90;;;;;;5112278;28;20140;-56
2021/05/06 14:10:01;;;;;;;3.20;2.33;;;9.70;99.90;;;;;;5111648;28;20166;-56
2021/05/06 14:12:26;;;;;;;2.33;1.80;;;10.00;99.90;;;;;;5111577;28;20042;-56
2021/05/06 14:14:52;;;;;;;3.28;1.92;;;9.90;99.90;;;;;;5111839;28;20477;-56
2021/05/06 14:17:18;;;;;;;3.60;1.65;;;9.90;99.90;;;;;;5111420;28;20039;-56
2021/05/06 14:19:44;;;;;;;2.08;1.65;;;9.80;99.90;;;;;;5111780;28;20050;-56
2021/05/06 14:22:09;;;;;;;4.90;2.00;;;9.90;99.90;;;;;;5111237;28;20424;-56
2021/05/06 14:24:35;;;;;;;2.78;1.75;;;9.90;99.90;;;;;;5111668;28;20040;-56
2021/05/06 14:27:02;;;;;;;2.38;2.08;;;9.90;99.90;;;;;;5111165;28;20397;-56
2021/05/06 14:29:28;;;;;;;3.38;1.80;;;9.90;99.90;;;;;;5111512;28;20036;-56
2021/05/06 14:31:54;;;;;;;3.30;1.67;;;9.90;99.90;;;;;;5111694;28;20460;-56
2021/05/06 14:34:20;;;;;;;2.67;2.38;;;10.00;99.90;;;;;;5112576;28;20050;-56
2021/05/06 14:36:46;;;;;;;2.17;1.70;;;10.10;99.90;;;;;;5115748;28;20036;-56
2021/05/06 14:39:13;;;;;;;3.55;2.10;;;10.30;99.90;;;;;;5089259;28;20063;-56
2021/05/06 14:41:40;;;;;;;2.20;1.60;;;10.30;99.90;;;;;;5097641;28;20036;-56
2021/05/06 14:44:06;;;;;;;2.22;1.63;;;10.60;99.90;;;;;;5115853;28;20044;-56
2021/05/06 14:46:32;;;;;;;6.75;2.55;;;10.80;99.90;;;;;;5115593;28;20081;-56
2021/05/06 14:48:58;;;;;;;2.78;1.92;;;11.00;99.90;;;;;;5115989;28;20039;-57
2021/05/06 14:51:23;;;;;;;3.10;2.20;;;11.00;99.90;;;;;;5115916;28;20469;-56
2021/05/06 14:53:49;;;;;;;5.70;2.40;;;11.20;99.90;;;;;;5115900;28;20413;-56
2021/05/06 14:56:15;;;;;;;1.80;1.70;;;11.10;99.90;;;;;;5115950;28;20040;-56
2021/05/06 14:58:41;;;;;;;3.58;1.83;;;11.20;99.90;;;;;;5115742;28;20043;-56
2021/05/06 15:01:06;;;;;;;4.43;2.10;;;11.20;99.90;;;;;;5115535;28;20040;-56
2021/05/06 15:03:32;;;;;;;2.45;2.00;;;11.10;99.90;;;;;;5097355;28;20047;-56
2021/05/06 15:05:58;;;;;;;3.05;1.70;;;11.00;99.90;;;;;;5115639;28;20048;-56
2021/05/06 15:08:24;;;;;;;3.42;2.15;;;10.90;99.90;;;;;;5115531;28;20052;-56
2021/05/06 15:10:50;;;;;;;2.67;1.92;;;10.90;99.90;;;;;;5115410;28;20066;-56
2021/05/06 15:13:16;;;;;;;2.33;1.90;;;10.60;99.90;;;;;;5115326;28;20047;-56
2021/05/06 15:15:42;;;;;;;2.85;1.52;;;10.70;99.90;;;;;;5115633;28;20035;-56
2021/05/06 15:18:08;;;;;;;2.30;1.50;;;10.60;99.90;;;;;;5115389;28;20046;-56
2021/05/06 15:20:34;;;;;;;3.42;2.05;;;10.50;99.90;;;;;;5115244;28;20366;-55
2021/05/06 15:23:01;;;;;;;3.13;1.45;;;10.50;99.90;;;;;;5115309;28;20108;-55
2021/05/06 15:25:27;;;;;;;1.73;1.50;;;10.50;99.90;;;;;;5114980;28;20039;-56
2021/05/06 15:27:54;;;;;;;2.00;1.40;;;10.30;99.90;;;;;;5114856;28;20067;-56
2021/05/06 15:30:21;;;;;;;4.32;2.00;;;10.20;99.90;;;;;;5114962;28;20048;-56
2021/05/06 15:32:47;;;;;;;2.45;1.50;;;10.20;99.90;;;;;;5114786;28;20492;-56
2021/05/06 15:35:14;;;;;;;3.33;1.70;;;10.20;99.90;;;;;;5114988;28;20043;-56
2021/05/06 15:37:41;;;;;;;2.20;1.55;;;10.30;99.90;;;;;;5114872;28;20122;-56
2021/05/06 15:40:10;;;;;;;3.20;1.75;;;10.10;99.90;;;;;;5114924;28;20054;-55
2021/05/06 15:42:37;;;;;;;3.72;2.10;;;10.10;99.90;;;;;;5114671;28;20067;-55
2021/05/06 15:45:05;;;;;;;2.67;1.85;;;10.10;99.90;;;;;;5114336;28;20071;-56
2021/05/06 15:47:31;;;;;;;4.45;1.98;;;10.10;99.90;;;;;;5114538;28;20047;-56
2021/05/06 15:49:57;;;;;;;2.15;1.65;;;10.10;99.90;;;;;;5114736;28;20051;-56
2021/05/06 15:52:25;;;;;;;3.78;1.85;;;10.00;99.90;;;;;;5114565;28;20492;-56
2021/05/06 15:54:51;;;;;;;3.28;1.92;;;10.20;99.90;;;;;;5114628;28;20069;-56
2021/05/06 15:57:17;;;;;;;3.33;2.10;;;10.20;99.90;;;;;;5114365;28;20048;-56
2021/05/06 15:59:42;;;;;;;2.00;1.75;;;10.20;99.90;;;;;;5114621;28;20042;-56
2021/05/06 16:02:09;;;;;;;3.05;1.70;;;10.10;99.90;;;;;;5114494;28;20550;-56
2021/05/06 16:04:38;;;;;;;1.85;1.63;;;10.20;99.90;;;;;;5114489;28;20047;-57
2021/05/06 16:07:04;;;;;;;4.60;2.30;;;10.20;99.90;;;;;;5114289;28;20047;-56
2021/05/06 16:09:30;;;;;;;2.42;1.88;;;10.20;99.90;;;;;;5114165;28;20473;-56
2021/05/06 16:11:55;;;;;;;2.50;1.90;;;10.30;99.90;;;;;;5114050;28;20079;-56
2021/05/06 16:14:21;;;;;;;2.88;1.80;;;10.20;99.90;;;;;;5114265;28;20043;-56